• Join FlightAware (Why Join?)
  • Login
  • US Flag 
07:46AM EST


 

Airport Tracker/Info


-or-


 

Live Flight TrackerFlight Track Log ✈ EJA831 ✈ 21-Jul-2013 ✈ KCRW - KFWA

Flight Track Log - Related Links

Times and Time Zones

All times are in EDT time to prevent confusion due to time zone crossing. See the EJA831 flight status page for this flight to view local times or setup timezone preferences in your user account.

Time Position Orientation Groundspeed Altitude Reporting Facility
EDT Latitude Longitude Course Direction KTS MPH feet Rate Location/Type
02:00PM 38.4656 -81.6436 315° West 230 265 8,000  Level Indianapolis Center
02:01PM 38.5169 -81.7114 314° West 267 307 10,800 2,220 Climbing Indianapolis Center
02:02PM 38.5811 -81.7961 314° West 325 374 12,600 1,920 Climbing Indianapolis Center
02:03PM 38.6472 -81.8856 313° West 340 391 14,800 1,860 Climbing Indianapolis Center
02:04PM 38.5311 -81.9829 319° Northwest  Level FlightAware Approximate
02:04PM 38.7153 -81.9764 314° West 347 399 16,500  Level Indianapolis Center
02:05PM 38.7819 -82.0667 313° West 348 400 18,200 1,740 Climbing Indianapolis Center
02:06PM 38.8489 -82.1569 314° West 349 402 20,100 1,740 Climbing Indianapolis Center
02:07PM 38.9161 -82.2492 313° West 353 406 21,900 1,680 Climbing Indianapolis Center
02:08PM 38.9836 -82.3414 313° West 354 407 23,600 1,020 Climbing Indianapolis Center
02:09PM 39.0664 -82.4547 313° West 362 417 24,000 180 Climbing Indianapolis Center
02:10PM 39.1347 -82.5489 313° West 360 414 24,000  Level Indianapolis Center
02:11PM 39.2061 -82.6464 313° West 357 411 24,000  Level Indianapolis Center
02:12PM 39.2736 -82.7419 312° West 357 411 24,000  Level Indianapolis Center
02:13PM 39.3425 -82.8364 313° West 358 412 24,000  Level Indianapolis Center
02:14PM 39.4108 -82.9314 313° West 358 412 24,000  Level Indianapolis Center
02:15PM 39.4797 -83.0264 313° West 359 413 24,000  Level Indianapolis Center
02:16PM 39.5483 -83.1222 313° West 359 413 24,000  Level Indianapolis Center
02:17PM 39.6156 -83.2178 312° West 356 410 24,000 -420 Level Indianapolis Center
02:18PM 39.6839 -83.3139 313° West 358 412 23,200 -960 Descending Indianapolis Center
02:19PM 39.7544 -83.4136 313° West 367 422 22,100 -600 Descending Indianapolis Center
02:20PM 39.8347 -83.5250 313° West 386 444 22,000 -60 Descending Indianapolis Center
02:21PM 39.9069 -83.6294 312° West 389 448 22,000 -480 Level Indianapolis Center
02:22PM 39.9878 -83.7244 318° Northwest 389 448 21,100 -1,200 Descending Indianapolis Center
02:23PM 40.0719 -83.8042 324° Northwest 376 433 19,600 -1,500 Descending Indianapolis Center
02:24PM 40.1522 -83.8842 323° Northwest 364 419 18,100 -1,620 Descending Indianapolis Center
02:26PM 40.2406 -83.9742 322° Northwest 346 398 16,400 -1,560 Descending Indianapolis Center
02:27PM 40.3153 -84.0481 323° Northwest 337 388 14,900 -1,500 Descending Indianapolis Center
02:28PM 40.3869 -84.1217 322° Northwest 327 376 13,300 -1,560 Descending Indianapolis Center
02:29PM 40.4506 -84.2039 315° West 319 367 11,800 -1,080 Descending Indianapolis Center
02:30PM 40.5008 -84.3008 304° West 317 365 11,100 -420 Descending Indianapolis Center
02:31PM 40.5522 -84.3961 305° West 318 366 11,000 -60 Descending Indianapolis Center
02:32PM 40.6053 -84.4950 305° West 325 374 11,000 -60 Level Indianapolis Center
02:33PM 40.6572 -84.5939 305° West 328 377 10,900 -840 Descending Indianapolis Center
02:34PM 40.6881 -84.6906 293° West 286 329 9,300 -1,500 Descending Indianapolis Center
02:35PM 40.7250 -84.7972 295° West 274 315 7,900 -1,320 Descending Indianapolis Center
02:36PM 40.7597 -84.8922 296° West 281 323 6,600 -1,260 Descending Indianapolis Center
02:37PM 40.7972 -84.9367 318° Northwest 280 322 5,700 -1,320 Descending Chicago Center
02:38PM 40.8528 -85.0078 316° Northwest 280 322 4,300 -1,380 Descending Chicago Center
02:39PM 40.9025 -85.0786 313° West 271 312 2,900 -1,200 Descending Chicago Center
02:40PM 40.9386 -85.1292 313° West 220 253 1,900 -1,020 Descending Chicago Center
02:42PM 40.9667 -85.1833 294° West  Level FlightAware Approximate
02:49PM 40.9785 -85.1952 294° West  Level Estimated